sensor_id;sensor_type;location;lat;lon;timestamp;temperature;humidity
5276;DHT22;2661;50.786;12.728;2023-11-18T00:00:25;4.70;1.00
5276;DHT22;2661;50.786;12.728;2023-11-18T00:02:52;4.70;1.00
5276;DHT22;2661;50.786;12.728;2023-11-18T00:05:19;4.70;21.20
5276;DHT22;2661;50.786;12.728;2023-11-18T00:07:45;4.70;1.00
5276;DHT22;2661;50.786;12.728;2023-11-18T00:10:12;4.70;24.10
5276;DHT22;2661;50.786;12.728;2023-11-18T00:12:39;4.70;16.80
5276;DHT22;2661;50.786;12.728;2023-11-18T00:15:08;4.60;1.00
5276;DHT22;2661;50.786;12.728;2023-11-18T00:17:37;4.70;1.00
5276;DHT22;2661;50.786;12.728;2023-11-18T00:20:04;4.70;1.00
5276;DHT22;2661;50.786;12.728;2023-11-18T00:22:39;4.70;27.60
5276;DHT22;2661;50.786;12.728;2023-11-18T00:25:06;4.70;2.30
5276;DHT22;2661;50.786;12.728;2023-11-18T00:27:35;4.70;36.20
5276;DHT22;2661;50.786;12.728;2023-11-18T00:30:03;4.70;1.00
5276;DHT22;2661;50.786;12.728;2023-11-18T00:32:31;4.70;15.00
5276;DHT22;2661;50.786;12.728;2023-11-18T00:34:58;4.70;1.00
5276;DHT22;2661;50.786;12.728;2023-11-18T00:37:25;4.80;1.00
5276;DHT22;2661;50.786;12.728;2023-11-18T00:39:52;4.80;2.20
5276;DHT22;2661;50.786;12.728;2023-11-18T00:42:19;4.70;1.00
5276;DHT22;2661;50.786;12.728;2023-11-18T00:44:45;4.70;1.00
5276;DHT22;2661;50.786;12.728;2023-11-18T00:47:12;4.60;1.00
5276;DHT22;2661;50.786;12.728;2023-11-18T00:49:39;4.60;1.00
5276;DHT22;2661;50.786;12.728;2023-11-18T00:52:06;4.60;17.20
5276;DHT22;2661;50.786;12.728;2023-11-18T00:54:34;4.50;1.00
5276;DHT22;2661;50.786;12.728;2023-11-18T00:57:01;4.50;1.00
5276;DHT22;2661;50.786;12.728;2023-11-18T00:59:27;4.60;14.00
5276;DHT22;2661;50.786;12.728;2023-11-18T01:01:55;4.60;1.00
5276;DHT22;2661;50.786;12.728;2023-11-18T01:04:21;4.60;1.00
5276;DHT22;2661;50.786;12.728;2023-11-18T01:06:48;4.60;22.00
5276;DHT22;2661;50.786;12.728;2023-11-18T01:09:14;4.50;1.00
5276;DHT22;2661;50.786;12.728;2023-11-18T01:11:42;4.60;1.00
5276;DHT22;2661;50.786;12.728;2023-11-18T01:14:29;4.60;40.20
5276;DHT22;2661;50.786;12.728;2023-11-18T01:16:55;4.60;1.00
5276;DHT22;2661;50.786;12.728;2023-11-18T01:19:22;4.60;4.50
5276;DHT22;2661;50.786;12.728;2023-11-18T01:21:49;4.50;1.00
5276;DHT22;2661;50.786;12.728;2023-11-18T01:24:19;4.50;10.20
5276;DHT22;2661;50.786;12.728;2023-11-18T01:26:46;4.60;17.80
5276;DHT22;2661;50.786;12.728;2023-11-18T01:29:13;4.50;1.00
5276;DHT22;2661;50.786;12.728;2023-11-18T01:31:40;4.50;1.00
5276;DHT22;2661;50.786;12.728;2023-11-18T01:34:18;4.60;32.60
5276;DHT22;2661;50.786;12.728;2023-11-18T01:36:48;4.70;1.00
5276;DHT22;2661;50.786;12.728;2023-11-18T01:39:16;4.70;26.50
5276;DHT22;2661;50.786;12.728;2023-11-18T01:41:44;4.70;4.60
5276;DHT22;2661;50.786;12.728;2023-11-18T01:44:11;4.70;1.00
5276;DHT22;2661;50.786;12.728;2023-11-18T01:46:40;4.70;1.00
5276;DHT22;2661;50.786;12.728;2023-11-18T01:49:11;4.70;1.00
5276;DHT22;2661;50.786;12.728;2023-11-18T01:51:41;4.80;1.00
5276;DHT22;2661;50.786;12.728;2023-11-18T01:54:08;4.80;1.00
5276;DHT22;2661;50.786;12.728;2023-11-18T01:56:35;4.80;1.00
5276;DHT22;2661;50.786;12.728;2023-11-18T01:59:02;4.80;1.00
5276;DHT22;2661;50.786;12.728;2023-11-18T02:01:31;4.80;1.00
5276;DHT22;2661;50.786;12.728;2023-11-18T02:04:00;4.90;8.80
5276;DHT22;2661;50.786;12.728;2023-11-18T02:06:27;4.90;1.40
5276;DHT22;2661;50.786;12.728;2023-11-18T02:08:54;4.90;1.00
5276;DHT22;2661;50.786;12.728;2023-11-18T02:11:24;4.90;1.00
5276;DHT22;2661;50.786;12.728;2023-11-18T02:13:54;4.90;1.00
5276;DHT22;2661;50.786;12.728;2023-11-18T02:16:22;4.80;9.50
5276;DHT22;2661;50.786;12.728;2023-11-18T02:18:50;4.80;1.00
5276;DHT22;2661;50.786;12.728;2023-11-18T02:21:20;4.80;1.00
5276;DHT22;2661;50.786;12.728;2023-11-18T02:23:47;4.70;1.00
5276;DHT22;2661;50.786;12.728;2023-11-18T02:26:21;4.80;1.00
5276;DHT22;2661;50.786;12.728;2023-11-18T02:28:48;4.70;10.90
5276;DHT22;2661;50.786;12.728;2023-11-18T02:31:16;4.70;1.00
5276;DHT22;2661;50.786;12.728;2023-11-18T02:33:50;4.70;1.00
5276;DHT22;2661;50.786;12.728;2023-11-18T02:36:23;4.80;1.00
5276;DHT22;2661;50.786;12.728;2023-11-18T02:38:53;4.80;1.00
5276;DHT22;2661;50.786;12.728;2023-11-18T02:41:21;4.80;1.00
5276;DHT22;2661;50.786;12.728;2023-11-18T02:43:48;4.80;1.00
5276;DHT22;2661;50.786;12.728;2023-11-18T02:46:16;4.80;1.00
5276;DHT22;2661;50.786;12.728;2023-11-18T02:48:43;4.70;1.00
5276;DHT22;2661;50.786;12.728;2023-11-18T02:51:10;4.80;1.00
5276;DHT22;2661;50.786;12.728;2023-11-18T02:53:38;4.70;1.00
5276;DHT22;2661;50.786;12.728;2023-11-18T02:56:07;4.70;1.00
5276;DHT22;2661;50.786;12.728;2023-11-18T02:58:34;4.70;1.00
5276;DHT22;2661;50.786;12.728;2023-11-18T03:01:00;4.70;1.00
5276;DHT22;2661;50.786;12.728;2023-11-18T03:03:27;4.70;1.00
5276;DHT22;2661;50.786;12.728;2023-11-18T03:05:55;4.70;1.00
5276;DHT22;2661;50.786;12.728;2023-11-18T03:08:21;4.70;1.00
5276;DHT22;2661;50.786;12.728;2023-11-18T03:10:48;4.60;1.00
5276;DHT22;2661;50.786;12.728;2023-11-18T03:13:19;4.60;1.00
5276;DHT22;2661;50.786;12.728;2023-11-18T03:15:45;4.60;1.00
5276;DHT22;2661;50.786;12.728;2023-11-18T03:18:14;4.60;1.00
5276;DHT22;2661;50.786;12.728;2023-11-18T03:20:41;4.60;1.00
5276;DHT22;2661;50.786;12.728;2023-11-18T03:23:08;4.60;1.00
5276;DHT22;2661;50.786;12.728;2023-11-18T03:25:35;4.60;1.00
5276;DHT22;2661;50.786;12.728;2023-11-18T03:28:02;4.60;1.00
5276;DHT22;2661;50.786;12.728;2023-11-18T03:30:31;4.60;1.00
5276;DHT22;2661;50.786;12.728;2023-11-18T03:32:57;4.60;1.00
5276;DHT22;2661;50.786;12.728;2023-11-18T03:35:24;4.60;24.50
5276;DHT22;2661;50.786;12.728;2023-11-18T03:37:51;4.60;1.00
5276;DHT22;2661;50.786;12.728;2023-11-18T03:40:18;4.60;1.00
5276;DHT22;2661;50.786;12.728;2023-11-18T03:42:44;4.60;1.00
5276;DHT22;2661;50.786;12.728;2023-11-18T03:45:14;4.60;1.00
5276;DHT22;2661;50.786;12.728;2023-11-18T03:47:42;4.60;23.20
5276;DHT22;2661;50.786;12.728;2023-11-18T03:50:09;4.60;1.00
5276;DHT22;2661;50.786;12.728;2023-11-18T03:52:36;4.50;1.00
5276;DHT22;2661;50.786;12.728;2023-11-18T03:55:04;4.50;1.00
5276;DHT22;2661;50.786;12.728;2023-11-18T03:57:31;4.60;8.30
5276;DHT22;2661;50.786;12.728;2023-11-18T03:59:58;4.50;1.00
5276;DHT22;2661;50.786;12.728;2023-11-18T04:02:24;4.60;1.00
5276;DHT22;2661;50.786;12.728;2023-11-18T04:04:52;4.50;1.00
5276;DHT22;2661;50.786;12.728;2023-11-18T04:07:18;4.60;24.70
5276;DHT22;2661;50.786;12.728;2023-11-18T04:09:45;4.50;1.00
5276;DHT22;2661;50.786;12.728;2023-11-18T04:12:12;4.50;9.30
5276;DHT22;2661;50.786;12.728;2023-11-18T04:14:39;4.50;17.90
5276;DHT22;2661;50.786;12.728;2023-11-18T04:17:05;4.50;1.00
5276;DHT22;2661;50.786;12.728;2023-11-18T04:19:34;4.50;1.00
5276;DHT22;2661;50.786;12.728;2023-11-18T04:22:00;4.50;1.00
5276;DHT22;2661;50.786;12.728;2023-11-18T04:24:27;4.50;1.00
5276;DHT22;2661;50.786;12.728;2023-11-18T04:26:54;4.50;11.70
5276;DHT22;2661;50.786;12.728;2023-11-18T04:29:21;4.50;2.50
5276;DHT22;2661;50.786;12.728;2023-11-18T04:31:49;4.50;8.50
5276;DHT22;2661;50.786;12.728;2023-11-18T04:34:16;4.50;1.00
5276;DHT22;2661;50.786;12.728;2023-11-18T04:36:43;4.40;2.80
5276;DHT22;2661;50.786;12.728;2023-11-18T04:39:09;4.40;1.00
5276;DHT22;2661;50.786;12.728;2023-11-18T04:41:38;4.40;1.00
5276;DHT22;2661;50.786;12.728;2023-11-18T04:44:05;4.40;1.00
5276;DHT22;2661;50.786;12.728;2023-11-18T04:46:31;4.40;1.00
5276;DHT22;2661;50.786;12.728;2023-11-18T04:48:58;4.40;1.00
5276;DHT22;2661;50.786;12.728;2023-11-18T04:51:25;4.40;1.00
5276;DHT22;2661;50.786;12.728;2023-11-18T04:53:52;4.40;11.40
5276;DHT22;2661;50.786;12.728;2023-11-18T04:56:18;4.40;1.00
5276;DHT22;2661;50.786;12.728;2023-11-18T04:58:45;4.40;1.00
5276;DHT22;2661;50.786;12.728;2023-11-18T05:01:13;4.40;3.60
5276;DHT22;2661;50.786;12.728;2023-11-18T05:03:40;4.40;1.00
5276;DHT22;2661;50.786;12.728;2023-11-18T05:06:07;4.40;6.60
5276;DHT22;2661;50.786;12.728;2023-11-18T05:08:35;4.30;17.30
5276;DHT22;2661;50.786;12.728;2023-11-18T05:11:02;4.40;1.00
5276;DHT22;2661;50.786;12.728;2023-11-18T05:13:31;4.40;1.00
5276;DHT22;2661;50.786;12.728;2023-11-18T05:15:59;4.30;1.00
5276;DHT22;2661;50.786;12.728;2023-11-18T05:18:26;4.30;1.00
5276;DHT22;2661;50.786;12.728;2023-11-18T05:20:56;4.30;1.00
5276;DHT22;2661;50.786;12.728;2023-11-18T05:23:23;4.30;1.00
5276;DHT22;2661;50.786;12.728;2023-11-18T05:25:50;4.40;1.00
5276;DHT22;2661;50.786;12.728;2023-11-18T05:28:17;4.30;6.80
5276;DHT22;2661;50.786;12.728;2023-11-18T05:30:44;4.40;1.00
5276;DHT22;2661;50.786;12.728;2023-11-18T05:33:10;4.40;13.50
5276;DHT22;2661;50.786;12.728;2023-11-18T05:35:46;4.40;1.00
5276;DHT22;2661;50.786;12.728;2023-11-18T05:38:17;4.40;1.00
5276;DHT22;2661;50.786;12.728;2023-11-18T05:40:46;4.40;1.00
5276;DHT22;2661;50.786;12.728;2023-11-18T05:43:24;4.40;1.00
5276;DHT22;2661;50.786;12.728;2023-11-18T05:45:52;4.40;1.00
5276;DHT22;2661;50.786;12.728;2023-11-18T05:48:41;4.50;1.00
5276;DHT22;2661;50.786;12.728;2023-11-18T05:51:10;4.50;1.00
5276;DHT22;2661;50.786;12.728;2023-11-18T05:53:40;4.50;1.00
5276;DHT22;2661;50.786;12.728;2023-11-18T05:56:08;4.50;1.00
5276;DHT22;2661;50.786;12.728;2023-11-18T05:58:34;4.50;6.20
5276;DHT22;2661;50.786;12.728;2023-11-18T06:01:01;4.50;1.00
5276;DHT22;2661;50.786;12.728;2023-11-18T06:03:28;4.50;8.40
5276;DHT22;2661;50.786;12.728;2023-11-18T06:05:55;4.50;16.40
5276;DHT22;2661;50.786;12.728;2023-11-18T06:08:22;4.50;13.40
5276;DHT22;2661;50.786;12.728;2023-11-18T06:10:49;4.60;6.30
5276;DHT22;2661;50.786;12.728;2023-11-18T06:13:18;4.60;12.90
5276;DHT22;2661;50.786;12.728;2023-11-18T06:15:44;4.60;1.00
5276;DHT22;2661;50.786;12.728;2023-11-18T06:18:11;4.60;1.00
5276;DHT22;2661;50.786;12.728;2023-11-18T06:20:38;4.50;7.20
5276;DHT22;2661;50.786;12.728;2023-11-18T06:23:05;4.50;1.00
5276;DHT22;2661;50.786;12.728;2023-11-18T06:25:31;4.50;1.00
5276;DHT22;2661;50.786;12.728;2023-11-18T06:27:58;4.50;5.30
5276;DHT22;2661;50.786;12.728;2023-11-18T06:30:25;4.60;1.00
5276;DHT22;2661;50.786;12.728;2023-11-18T06:32:52;4.60;1.00
5276;DHT22;2661;50.786;12.728;2023-11-18T06:35:19;4.60;1.00
5276;DHT22;2661;50.786;12.728;2023-11-18T06:37:47;4.60;1.00
5276;DHT22;2661;50.786;12.728;2023-11-18T06:40:14;4.50;1.00
5276;DHT22;2661;50.786;12.728;2023-11-18T06:42:45;4.60;1.00
5276;DHT22;2661;50.786;12.728;2023-11-18T06:45:15;4.60;10.80
5276;DHT22;2661;50.786;12.728;2023-11-18T06:47:41;4.50;1.00
5276;DHT22;2661;50.786;12.728;2023-11-18T06:50:12;4.50;2.60
5276;DHT22;2661;50.786;12.728;2023-11-18T06:52:42;4.50;1.00
5276;DHT22;2661;50.786;12.728;2023-11-18T06:55:14;4.50;1.00
5276;DHT22;2661;50.786;12.728;2023-11-18T06:57:40;4.50;2.00
5276;DHT22;2661;50.786;12.728;2023-11-18T07:00:10;4.50;1.00
5276;DHT22;2661;50.786;12.728;2023-11-18T07:02:36;4.50;11.50
5276;DHT22;2661;50.786;12.728;2023-11-18T07:05:04;4.50;24.50
5276;DHT22;2661;50.786;12.728;2023-11-18T07:07:32;4.50;1.00
5276;DHT22;2661;50.786;12.728;2023-11-18T07:09:59;4.60;10.10
5276;DHT22;2661;50.786;12.728;2023-11-18T07:12:26;4.60;1.00
5276;DHT22;2661;50.786;12.728;2023-11-18T07:14:52;4.60;1.00
5276;DHT22;2661;50.786;12.728;2023-11-18T07:17:20;4.60;1.00
5276;DHT22;2661;50.786;12.728;2023-11-18T07:19:47;4.60;1.00
5276;DHT22;2661;50.786;12.728;2023-11-18T07:22:13;4.70;1.00
5276;DHT22;2661;50.786;12.728;2023-11-18T07:24:41;4.70;1.00
5276;DHT22;2661;50.786;12.728;2023-11-18T07:27:09;4.60;7.50
5276;DHT22;2661;50.786;12.728;2023-11-18T07:29:37;4.60;1.00
5276;DHT22;2661;50.786;12.728;2023-11-18T07:32:04;4.60;1.00
5276;DHT22;2661;50.786;12.728;2023-11-18T07:34:32;4.60;1.00
5276;DHT22;2661;50.786;12.728;2023-11-18T07:37:02;4.60;29.60
5276;DHT22;2661;50.786;12.728;2023-11-18T07:39:28;4.60;1.00
5276;DHT22;2661;50.786;12.728;2023-11-18T07:42:11;4.60;1.00
5276;DHT22;2661;50.786;12.728;2023-11-18T07:44:38;4.70;1.00
5276;DHT22;2661;50.786;12.728;2023-11-18T07:47:05;4.70;1.00
5276;DHT22;2661;50.786;12.728;2023-11-18T07:49:33;4.90;1.00
5276;DHT22;2661;50.786;12.728;2023-11-18T07:52:00;4.80;1.00
5276;DHT22;2661;50.786;12.728;2023-11-18T07:54:27;4.90;8.60
5276;DHT22;2661;50.786;12.728;2023-11-18T07:56:53;4.90;1.00
5276;DHT22;2661;50.786;12.728;2023-11-18T07:59:20;5.00;16.80
5276;DHT22;2661;50.786;12.728;2023-11-18T08:01:47;5.00;1.00
5276;DHT22;2661;50.786;12.728;2023-11-18T08:04:15;4.90;1.00
5276;DHT22;2661;50.786;12.728;2023-11-18T08:06:42;5.00;1.00
5276;DHT22;2661;50.786;12.728;2023-11-18T08:09:09;4.90;1.00
5276;DHT22;2661;50.786;12.728;2023-11-18T08:11:37;4.90;1.00
5276;DHT22;2661;50.786;12.728;2023-11-18T08:14:03;4.90;1.00
5276;DHT22;2661;50.786;12.728;2023-11-18T08:16:30;5.00;1.00
5276;DHT22;2661;50.786;12.728;2023-11-18T08:18:59;5.00;1.00
5276;DHT22;2661;50.786;12.728;2023-11-18T08:21:26;5.00;1.00
5276;DHT22;2661;50.786;12.728;2023-11-18T08:23:53;5.10;1.00
5276;DHT22;2661;50.786;12.728;2023-11-18T08:26:19;5.10;1.00
5276;DHT22;2661;50.786;12.728;2023-11-18T08:28:46;5.20;1.00
5276;DHT22;2661;50.786;12.728;2023-11-18T08:31:13;5.20;1.00
5276;DHT22;2661;50.786;12.728;2023-11-18T08:33:42;5.20;1.00
5276;DHT22;2661;50.786;12.728;2023-11-18T08:36:09;5.10;1.00
5276;DHT22;2661;50.786;12.728;2023-11-18T08:38:39;5.20;1.00
5276;DHT22;2661;50.786;12.728;2023-11-18T08:41:06;5.20;22.10
5276;DHT22;2661;50.786;12.728;2023-11-18T08:43:35;5.20;1.00
5276;DHT22;2661;50.786;12.728;2023-11-18T08:46:02;5.20;1.00
5276;DHT22;2661;50.786;12.728;2023-11-18T08:48:29;5.30;1.00
5276;DHT22;2661;50.786;12.728;2023-11-18T08:50:55;5.30;1.00
5276;DHT22;2661;50.786;12.728;2023-11-18T08:53:22;5.30;1.00
5276;DHT22;2661;50.786;12.728;2023-11-18T08:55:53;5.40;1.00
5276;DHT22;2661;50.786;12.728;2023-11-18T08:58:22;5.50;3.20
5276;DHT22;2661;50.786;12.728;2023-11-18T09:00:54;5.40;1.00
5276;DHT22;2661;50.786;12.728;2023-11-18T09:03:22;5.50;1.00
5276;DHT22;2661;50.786;12.728;2023-11-18T09:05:56;5.50;1.00
5276;DHT22;2661;50.786;12.728;2023-11-18T09:08:27;5.50;1.00
5276;DHT22;2661;50.786;12.728;2023-11-18T09:10:56;5.50;2.80
5276;DHT22;2661;50.786;12.728;2023-11-18T09:13:23;5.60;1.00
5276;DHT22;2661;50.786;12.728;2023-11-18T09:15:58;5.60;10.50
5276;DHT22;2661;50.786;12.728;2023-11-18T09:18:26;5.60;1.00
5276;DHT22;2661;50.786;12.728;2023-11-18T09:21:04;5.60;1.00
5276;DHT22;2661;50.786;12.728;2023-11-18T09:23:42;5.60;1.00
5276;DHT22;2661;50.786;12.728;2023-11-18T09:26:09;5.60;1.00
5276;DHT22;2661;50.786;12.728;2023-11-18T09:28:37;5.70;1.00
5276;DHT22;2661;50.786;12.728;2023-11-18T09:31:04;5.70;1.00
5276;DHT22;2661;50.786;12.728;2023-11-18T09:33:55;5.70;2.60
5276;DHT22;2661;50.786;12.728;2023-11-18T09:36:24;5.70;99.90
5276;DHT22;2661;50.786;12.728;2023-11-18T09:38:51;5.70;1.00
5276;DHT22;2661;50.786;12.728;2023-11-18T09:41:19;5.60;28.30
5276;DHT22;2661;50.786;12.728;2023-11-18T09:43:50;5.60;58.90
5276;DHT22;2661;50.786;12.728;2023-11-18T09:46:24;5.60;1.00
5276;DHT22;2661;50.786;12.728;2023-11-18T09:48:52;5.60;1.00
5276;DHT22;2661;50.786;12.728;2023-11-18T09:53:51;5.70;1.00
5276;DHT22;2661;50.786;12.728;2023-11-18T09:56:28;5.70;1.00
5276;DHT22;2661;50.786;12.728;2023-11-18T09:59:29;5.70;1.00
5276;DHT22;2661;50.786;12.728;2023-11-18T10:01:53;5.70;1.00
5276;DHT22;2661;50.786;12.728;2023-11-18T10:04:23;5.70;1.00
5276;DHT22;2661;50.786;12.728;2023-11-18T10:06:54;5.70;1.00
5276;DHT22;2661;50.786;12.728;2023-11-18T10:09:26;5.80;1.00
5276;DHT22;2661;50.786;12.728;2023-11-18T10:12:03;5.80;1.00
5276;DHT22;2661;50.786;12.728;2023-11-18T10:14:36;5.90;1.00
5276;DHT22;2661;50.786;12.728;2023-11-18T10:17:06;5.90;1.00
5276;DHT22;2661;50.786;12.728;2023-11-18T10:19:49;5.90;1.00
5276;DHT22;2661;50.786;12.728;2023-11-18T10:22:20;6.00;1.00
5276;DHT22;2661;50.786;12.728;2023-11-18T10:24:48;6.00;1.00
5276;DHT22;2661;50.786;12.728;2023-11-18T10:27:15;6.00;1.00
5276;DHT22;2661;50.786;12.728;2023-11-18T10:29:42;6.10;1.00
5276;DHT22;2661;50.786;12.728;2023-11-18T10:32:08;6.10;1.00
5276;DHT22;2661;50.786;12.728;2023-11-18T10:34:42;6.10;1.00
5276;DHT22;2661;50.786;12.728;2023-11-18T10:37:09;6.10;1.00
5276;DHT22;2661;50.786;12.728;2023-11-18T10:39:37;6.20;1.00
5276;DHT22;2661;50.786;12.728;2023-11-18T10:42:04;6.10;1.00
5276;DHT22;2661;50.786;12.728;2023-11-18T10:44:31;6.10;1.00
5276;DHT22;2661;50.786;12.728;2023-11-18T10:46:58;6.10;1.00
5276;DHT22;2661;50.786;12.728;2023-11-18T10:49:29;6.10;1.00
5276;DHT22;2661;50.786;12.728;2023-11-18T10:52:04;6.10;1.00
5276;DHT22;2661;50.786;12.728;2023-11-18T10:54:33;6.20;1.00
5276;DHT22;2661;50.786;12.728;2023-11-18T10:57:01;6.10;1.00
5276;DHT22;2661;50.786;12.728;2023-11-18T10:59:33;6.10;1.00
5276;DHT22;2661;50.786;12.728;2023-11-18T11:02:00;6.10;1.00
5276;DHT22;2661;50.786;12.728;2023-11-18T11:04:28;6.10;1.00
5276;DHT22;2661;50.786;12.728;2023-11-18T11:07:08;6.10;7.40
5276;DHT22;2661;50.786;12.728;2023-11-18T11:09:37;6.10;1.00
5276;DHT22;2661;50.786;12.728;2023-11-18T11:12:10;6.10;1.00
5276;DHT22;2661;50.786;12.728;2023-11-18T11:14:54;6.00;1.00
5276;DHT22;2661;50.786;12.728;2023-11-18T11:17:23;6.00;1.00
5276;DHT22;2661;50.786;12.728;2023-11-18T11:20:06;6.10;1.00
5276;DHT22;2661;50.786;12.728;2023-11-18T11:25:20;6.40;1.00
5276;DHT22;2661;50.786;12.728;2023-11-18T11:28:00;6.40;1.00
5276;DHT22;2661;50.786;12.728;2023-11-18T11:30:32;6.60;4.40
5276;DHT22;2661;50.786;12.728;2023-11-18T11:33:06;6.70;1.00
5276;DHT22;2661;50.786;12.728;2023-11-18T11:35:40;6.80;1.00
5276;DHT22;2661;50.786;12.728;2023-11-18T11:38:12;6.90;1.00
5276;DHT22;2661;50.786;12.728;2023-11-18T11:40:41;7.00;1.00
5276;DHT22;2661;50.786;12.728;2023-11-18T11:43:09;6.90;1.00
5276;DHT22;2661;50.786;12.728;2023-11-18T11:45:42;6.90;5.10
5276;DHT22;2661;50.786;12.728;2023-11-18T11:48:09;6.70;38.80
5276;DHT22;2661;50.786;12.728;2023-11-18T11:50:44;6.60;4.70
5276;DHT22;2661;50.786;12.728;2023-11-18T11:53:12;6.60;16.00
5276;DHT22;2661;50.786;12.728;2023-11-18T11:55:49;6.50;41.20
5276;DHT22;2661;50.786;12.728;2023-11-18T11:58:30;6.40;1.00
5276;DHT22;2661;50.786;12.728;2023-11-18T12:01:00;6.30;45.60
5276;DHT22;2661;50.786;12.728;2023-11-18T12:03:40;6.30;16.20
5276;DHT22;2661;50.786;12.728;2023-11-18T12:06:12;6.20;1.00
5276;DHT22;2661;50.786;12.728;2023-11-18T12:08:42;6.20;4.80
5276;DHT22;2661;50.786;12.728;2023-11-18T12:11:11;6.20;1.00
5276;DHT22;2661;50.786;12.728;2023-11-18T12:13:39;6.30;1.00
5276;DHT22;2661;50.786;12.728;2023-11-18T12:16:06;6.30;1.00
5276;DHT22;2661;50.786;12.728;2023-11-18T12:18:36;6.40;33.10
5276;DHT22;2661;50.786;12.728;2023-11-18T12:21:03;6.40;1.00
5276;DHT22;2661;50.786;12.728;2023-11-18T12:23:31;6.50;63.40
5276;DHT22;2661;50.786;12.728;2023-11-18T12:26:01;6.60;1.00
5276;DHT22;2661;50.786;12.728;2023-11-18T12:28:33;6.70;23.90
5276;DHT22;2661;50.786;12.728;2023-11-18T12:31:12;6.90;39.50
5276;DHT22;2661;50.786;12.728;2023-11-18T12:47:02;7.00;1.00
5276;DHT22;2661;50.786;12.728;2023-11-18T12:49:39;6.90;1.00
5276;DHT22;2661;50.786;12.728;2023-11-18T12:52:09;6.80;2.60
5276;DHT22;2661;50.786;12.728;2023-11-18T12:54:36;6.80;1.00
5276;DHT22;2661;50.786;12.728;2023-11-18T12:57:10;6.60;1.00
5276;DHT22;2661;50.786;12.728;2023-11-18T12:59:40;6.60;3.20
5276;DHT22;2661;50.786;12.728;2023-11-18T13:02:08;6.60;1.00
5276;DHT22;2661;50.786;12.728;2023-11-18T13:04:40;6.60;1.80
5276;DHT22;2661;50.786;12.728;2023-11-18T13:07:07;6.50;1.00
5276;DHT22;2661;50.786;12.728;2023-11-18T13:09:37;6.50;1.00
5276;DHT22;2661;50.786;12.728;2023-11-18T13:12:05;6.50;1.00
5276;DHT22;2661;50.786;12.728;2023-11-18T13:14:35;6.50;1.00
5276;DHT22;2661;50.786;12.728;2023-11-18T13:17:03;6.50;1.00
5276;DHT22;2661;50.786;12.728;2023-11-18T13:19:35;6.60;3.10
5276;DHT22;2661;50.786;12.728;2023-11-18T13:22:02;6.60;6.60
5276;DHT22;2661;50.786;12.728;2023-11-18T13:24:34;6.70;1.00
5276;DHT22;2661;50.786;12.728;2023-11-18T13:27:05;6.80;1.00
5276;DHT22;2661;50.786;12.728;2023-11-18T13:29:33;6.80;1.00
5276;DHT22;2661;50.786;12.728;2023-11-18T13:32:01;6.70;1.00
5276;DHT22;2661;50.786;12.728;2023-11-18T13:34:31;6.80;1.00
5276;DHT22;2661;50.786;12.728;2023-11-18T13:36:59;6.80;1.00
5276;DHT22;2661;50.786;12.728;2023-11-18T13:39:26;6.80;1.00
5276;DHT22;2661;50.786;12.728;2023-11-18T13:41:54;6.80;1.00
5276;DHT22;2661;50.786;12.728;2023-11-18T13:44:36;6.70;1.00
5276;DHT22;2661;50.786;12.728;2023-11-18T13:47:05;6.70;1.00
5276;DHT22;2661;50.786;12.728;2023-11-18T13:49:32;6.70;1.00
5276;DHT22;2661;50.786;12.728;2023-11-18T13:52:01;6.60;1.00
5276;DHT22;2661;50.786;12.728;2023-11-18T13:54:28;6.70;2.20
5276;DHT22;2661;50.786;12.728;2023-11-18T13:56:58;6.70;3.40
5276;DHT22;2661;50.786;12.728;2023-11-18T13:59:25;6.70;1.00
5276;DHT22;2661;50.786;12.728;2023-11-18T14:01:55;6.70;1.00
5276;DHT22;2661;50.786;12.728;2023-11-18T14:04:31;6.70;1.00
5276;DHT22;2661;50.786;12.728;2023-11-18T14:07:03;6.70;1.00
5276;DHT22;2661;50.786;12.728;2023-11-18T14:09:35;6.70;1.00
5276;DHT22;2661;50.786;12.728;2023-11-18T14:12:03;6.70;1.00
5276;DHT22;2661;50.786;12.728;2023-11-18T14:14:32;6.70;2.30
5276;DHT22;2661;50.786;12.728;2023-11-18T14:16:59;6.70;1.00
5276;DHT22;2661;50.786;12.728;2023-11-18T14:19:26;6.70;1.00
5276;DHT22;2661;50.786;12.728;2023-11-18T14:21:54;6.60;1.00
5276;DHT22;2661;50.786;12.728;2023-11-18T14:24:21;6.60;1.00
5276;DHT22;2661;50.786;12.728;2023-11-18T14:26:54;6.60;1.00
5276;DHT22;2661;50.786;12.728;2023-11-18T14:29:21;6.60;14.80
5276;DHT22;2661;50.786;12.728;2023-11-18T14:31:47;6.50;1.00
5276;DHT22;2661;50.786;12.728;2023-11-18T14:34:14;6.50;1.00
5276;DHT22;2661;50.786;12.728;2023-11-18T14:36:41;6.50;10.80
5276;DHT22;2661;50.786;12.728;2023-11-18T14:39:11;6.40;1.00
5276;DHT22;2661;50.786;12.728;2023-11-18T14:41:40;6.40;1.00
5276;DHT22;2661;50.786;12.728;2023-11-18T14:44:07;6.40;1.00
5276;DHT22;2661;50.786;12.728;2023-11-18T14:46:36;6.30;61.50
5276;DHT22;2661;50.786;12.728;2023-11-18T14:49:07;6.30;4.40
5276;DHT22;2661;50.786;12.728;2023-11-18T14:51:36;6.20;1.00
5276;DHT22;2661;50.786;12.728;2023-11-18T14:54:04;6.20;1.00
5276;DHT22;2661;50.786;12.728;2023-11-18T14:56:32;6.10;1.00
5276;DHT22;2661;50.786;12.728;2023-11-18T14:58:59;6.10;1.00
5276;DHT22;2661;50.786;12.728;2023-11-18T15:01:26;6.00;1.00
5276;DHT22;2661;50.786;12.728;2023-11-18T15:03:54;6.00;1.00
5276;DHT22;2661;50.786;12.728;2023-11-18T15:06:26;5.90;1.00
5276;DHT22;2661;50.786;12.728;2023-11-18T15:08:52;5.80;1.00
5276;DHT22;2661;50.786;12.728;2023-11-18T15:11:23;5.80;1.00
5276;DHT22;2661;50.786;12.728;2023-11-18T15:13:50;5.70;1.00
5276;DHT22;2661;50.786;12.728;2023-11-18T15:16:19;5.70;3.70
5276;DHT22;2661;50.786;12.728;2023-11-18T15:18:46;5.70;1.00
5276;DHT22;2661;50.786;12.728;2023-11-18T15:21:14;5.60;1.00
5276;DHT22;2661;50.786;12.728;2023-11-18T15:23:42;5.60;1.00
5276;DHT22;2661;50.786;12.728;2023-11-18T15:26:08;5.60;11.50
5276;DHT22;2661;50.786;12.728;2023-11-18T15:28:36;5.50;1.00
5276;DHT22;2661;50.786;12.728;2023-11-18T15:31:03;5.50;1.00
5276;DHT22;2661;50.786;12.728;2023-11-18T15:33:31;5.50;18.90
5276;DHT22;2661;50.786;12.728;2023-11-18T15:35:58;5.40;12.20
5276;DHT22;2661;50.786;12.728;2023-11-18T15:38:25;5.30;1.00
5276;DHT22;2661;50.786;12.728;2023-11-18T15:40:52;5.30;1.00
5276;DHT22;2661;50.786;12.728;2023-11-18T15:43:18;5.30;1.00
5276;DHT22;2661;50.786;12.728;2023-11-18T15:45:45;5.20;4.40
5276;DHT22;2661;50.786;12.728;2023-11-18T15:48:12;5.10;1.00
5276;DHT22;2661;50.786;12.728;2023-11-18T15:50:41;5.10;1.00
5276;DHT22;2661;50.786;12.728;2023-11-18T15:53:08;5.10;1.00
5276;DHT22;2661;50.786;12.728;2023-11-18T15:55:35;5.10;1.00
5276;DHT22;2661;50.786;12.728;2023-11-18T15:58:05;5.00;1.00
5276;DHT22;2661;50.786;12.728;2023-11-18T16:00:31;5.00;1.00
5276;DHT22;2661;50.786;12.728;2023-11-18T16:02:58;4.90;1.00
5276;DHT22;2661;50.786;12.728;2023-11-18T16:05:29;4.90;1.00
5276;DHT22;2661;50.786;12.728;2023-11-18T16:08:02;4.90;1.00
5276;DHT22;2661;50.786;12.728;2023-11-18T16:10:29;4.90;1.00
5276;DHT22;2661;50.786;12.728;2023-11-18T16:12:57;4.90;1.00
5276;DHT22;2661;50.786;12.728;2023-11-18T16:15:30;4.90;1.00
5276;DHT22;2661;50.786;12.728;2023-11-18T16:17:58;4.90;1.00
5276;DHT22;2661;50.786;12.728;2023-11-18T16:20:26;4.80;1.00
5276;DHT22;2661;50.786;12.728;2023-11-18T16:22:54;4.80;1.00
5276;DHT22;2661;50.786;12.728;2023-11-18T16:25:21;4.80;1.00
5276;DHT22;2661;50.786;12.728;2023-11-18T16:27:49;4.80;1.00
5276;DHT22;2661;50.786;12.728;2023-11-18T16:30:17;4.80;1.00
5276;DHT22;2661;50.786;12.728;2023-11-18T16:32:44;4.80;1.00
5276;DHT22;2661;50.786;12.728;2023-11-18T16:35:16;4.80;1.00
5276;DHT22;2661;50.786;12.728;2023-11-18T16:37:43;4.80;1.00
5276;DHT22;2661;50.786;12.728;2023-11-18T16:40:10;4.80;1.00
5276;DHT22;2661;50.786;12.728;2023-11-18T16:42:40;4.80;1.00